Time;durP1;ratioP1;P1;durP2;ratioP2;P2;SDS_P1;SDS_P2;PMS_P1;PMS_P2;Temp;Humidity;BMP_temperature;BMP_pressure;BME280_temperature;BME280_humidity;BME280_pressure;Samples;Min_cycle;Max_cycle;Signal;HPM_P1;HPM_P2
2022/08/14 12:24:44;;;;;;;0.00;0.00;;;;;;;25.51;78.56;97578.06;4975018;27;76054;-88
2022/08/14 12:27:13;;;;;;;0.00;0.00;;;;;;;25.52;79.15;97580.56;5004764;28;20055;-84
2022/08/14 12:29:52;;;;;;;0.00;0.00;;;;;;;25.58;79.22;97578.94;5044953;28;20041;-85
2022/08/14 12:32:19;;;;;;;0.00;0.00;;;;;;;25.67;79.04;97577.72;5047846;28;20500;-86
2022/08/14 12:34:54;;;;;;;0.00;0.00;;;;;;;25.73;78.85;97577.72;5042795;28;20045;-82
2022/08/14 12:37:31;;;;;;;0.00;0.00;;;;;;;25.63;78.12;97582.69;5050292;28;20516;-84
2022/08/14 12:40:11;;;;;;;0.00;0.00;;;;;;;25.33;78.15;97580.50;5052466;28;20083;-84
2022/08/14 12:42:41;;;;;;;0.00;0.00;;;;;;;25.13;79.12;97588.47;5039599;28;20052;-83
2022/08/14 12:45:11;;;;;;;0.00;0.00;;;;;;;25.19;79.84;97582.31;5055273;28;20040;-84
2022/08/14 12:47:40;;;;;;;0.00;0.00;;;;;;;25.07;79.72;97583.88;5054804;28;20093;-84
2022/08/14 12:50:09;;;;;;;0.00;0.00;;;;;;;25.04;80.25;97578.09;5048508;28;20046;-83
2022/08/14 12:52:39;;;;;;;0.00;0.00;;;;;;;25.21;80.54;97574.84;5050915;28;20037;-82
2022/08/14 12:55:10;;;;;;;0.00;0.00;;;;;;;25.27;79.28;97570.50;5054011;28;20045;-85
2022/08/14 12:57:40;;;;;;;0.00;0.00;;;;;;;25.38;79.61;97570.78;5054930;28;20120;-85
2022/08/14 13:00:13;;;;;;;0.00;0.00;;;;;;;25.59;80.14;97565.28;5049110;28;20128;-84
2022/08/14 13:02:41;;;;;;;0.00;0.00;;;;;;;25.54;78.80;97559.66;5051419;28;20468;-82
2022/08/14 13:05:11;;;;;;;0.00;0.00;;;;;;;25.48;78.79;97554.22;5050571;28;20099;-85
2022/08/14 13:07:39;;;;;;;0.00;0.00;;;;;;;25.35;79.69;97562.25;5050859;28;20071;-83
2022/08/14 13:10:13;;;;;;;0.00;0.00;;;;;;;25.15;80.34;97556.81;5051148;28;20041;-83
2022/08/14 13:12:41;;;;;;;0.00;0.00;;;;;;;25.01;80.70;97549.72;5053086;28;20092;-83
2022/08/14 13:15:11;;;;;;;0.00;0.00;;;;;;;24.89;81.45;97539.69;5049481;28;20041;-82
2022/08/14 13:17:44;;;;;;;0.00;0.00;;;;;;;24.83;81.66;97537.78;5049818;28;20036;-83
2022/08/14 13:20:13;;;;;;;0.00;0.00;;;;;;;24.77;81.58;97531.31;5056625;28;20044;-82
2022/08/14 13:22:43;;;;;;;0.00;0.00;;;;;;;24.81;82.68;97531.78;5051129;28;20502;-83
2022/08/14 13:25:14;;;;;;;0.00;0.00;;;;;;;24.95;83.36;97522.78;5051546;28;20123;-84
2022/08/14 13:27:44;;;;;;;0.00;0.00;;;;;;;25.00;81.37;97518.44;5053910;28;20114;-82
2022/08/14 13:30:13;;;;;;;0.00;0.00;;;;;;;24.91;80.17;97522.31;5049471;28;20327;-82
2022/08/14 13:32:43;;;;;;;0.00;0.00;;;;;;;24.97;79.94;97508.06;5046423;28;20065;-81
2022/08/14 13:35:12;;;;;;;0.00;0.00;;;;;;;24.94;80.20;97508.47;5020741;28;20042;-80
2022/08/14 13:37:41;;;;;;;0.00;0.00;;;;;;;24.74;81.08;97501.31;5023224;28;20034;-82
2022/08/14 13:40:10;;;;;;;0.00;0.00;;;;;;;24.58;80.76;97493.59;5028465;28;20836;-80
2022/08/14 13:42:42;;;;;;;0.00;0.00;;;;;;;24.49;81.43;97487.53;5022047;28;20140;-82
2022/08/14 13:45:11;;;;;;;0.00;0.00;;;;;;;24.45;81.86;97488.97;5026821;28;20103;-83
2022/08/14 13:47:40;;;;;;;0.00;0.00;;;;;;;24.39;82.47;97486.22;5026206;28;20168;-82
2022/08/14 13:50:10;;;;;;;0.00;0.00;;;;;;;24.25;81.76;97481.78;5020312;28;20121;-82
2022/08/14 13:52:41;;;;;;;0.00;0.00;;;;;;;24.10;82.66;97473.78;5027114;28;20046;-82
2022/08/14 13:55:10;;;;;;;0.00;0.00;;;;;;;24.12;81.67;97463.69;5022799;28;20038;-81
2022/08/14 13:57:42;;;;;;;0.00;0.00;;;;;;;24.18;80.99;97460.19;5020044;28;20038;-83
2022/08/14 14:00:13;;;;;;;0.00;0.00;;;;;;;24.34;82.01;97476.06;5024537;28;20042;-80
2022/08/14 14:02:43;;;;;;;0.00;0.00;;;;;;;24.43;81.27;97469.47;5029259;28;20140;-84
2022/08/14 14:05:13;;;;;;;0.00;0.00;;;;;;;24.52;79.95;97460.25;5030708;28;20092;-83
2022/08/14 14:07:46;;;;;;;0.00;0.00;;;;;;;24.64;79.70;97461.31;5025036;28;20072;-84
2022/08/14 14:10:15;;;;;;;0.00;0.00;;;;;;;24.81;80.66;97457.25;5023433;28;20062;-81
2022/08/14 14:12:44;;;;;;;0.00;0.00;;;;;;;24.97;81.07;97461.47;5029836;28;20045;-84
2022/08/14 14:15:14;;;;;;;0.00;0.00;;;;;;;25.03;79.51;97455.31;5023631;28;20087;-82
2022/08/14 14:17:46;;;;;;;0.00;0.00;;;;;;;25.09;79.46;97457.16;5025362;28;20047;-81
2022/08/14 14:20:16;;;;;;;0.00;0.00;;;;;;;25.07;77.93;97454.66;5038524;28;20087;-83
2022/08/14 14:22:46;;;;;;;0.00;0.00;;;;;;;25.11;78.17;97447.03;5034884;28;20354;-82
2022/08/14 14:25:15;;;;;;;0.00;0.00;;;;;;;25.21;78.10;97437.50;5023926;28;20166;-81
2022/08/14 14:27:47;;;;;;;0.00;0.00;;;;;;;25.17;78.22;97438.97;5025936;28;20045;-82
2022/08/14 14:30:17;;;;;;;0.00;0.00;;;;;;;25.13;78.47;97435.03;5025840;28;20038;-82
2022/08/14 14:32:48;;;;;;;0.00;0.00;;;;;;;24.99;77.53;97435.22;5031086;28;20496;-83
2022/08/14 14:35:18;;;;;;;0.00;0.00;;;;;;;24.98;77.46;97431.66;5023387;28;20411;-83
2022/08/14 14:37:47;;;;;;;0.00;0.00;;;;;;;25.07;77.07;97425.06;5028310;28;20052;-81
2022/08/14 14:40:16;;;;;;;0.00;0.00;;;;;;;25.13;76.45;97429.63;5028755;28;20427;-84
2022/08/14 14:42:49;;;;;;;0.00;0.00;;;;;;;25.21;76.42;97426.75;5034524;28;20394;-84
2022/08/14 14:45:18;;;;;;;0.00;0.00;;;;;;;25.21;75.79;97421.38;5034009;28;20506;-83
2022/08/14 14:47:50;;;;;;;0.00;0.00;;;;;;;25.10;76.83;97430.03;5037208;28;20041;-81
2022/08/14 14:50:18;;;;;;;0.00;0.00;;;;;;;24.94;76.31;97430.41;5032209;28;20116;-82
2022/08/14 14:52:48;;;;;;;0.00;0.00;;;;;;;24.84;75.93;97435.31;5030696;28;20490;-82
2022/08/14 14:55:17;;;;;;;0.00;0.00;;;;;;;24.68;76.30;97429.47;5037557;28;20048;-81
2022/08/14 14:57:47;;;;;;;0.00;0.00;;;;;;;24.58;76.93;97440.59;5037543;28;20045;-83
2022/08/14 15:00:16;;;;;;;0.00;0.00;;;;;;;24.53;77.37;97437.69;5031911;28;20554;-82
2022/08/14 15:02:46;;;;;;;0.00;0.00;;;;;;;24.55;77.62;97434.81;5038268;28;20502;-80
2022/08/14 15:05:16;;;;;;;0.00;0.00;;;;;;;24.58;78.04;97435.22;5033232;28;20056;-84
2022/08/14 15:07:44;;;;;;;0.00;0.00;;;;;;;24.51;78.60;97430.84;5035580;28;20044;-83
2022/08/14 15:10:14;;;;;;;0.00;0.00;;;;;;;24.40;79.47;97440.28;5024382;28;20046;-84
2022/08/14 15:12:42;;;;;;;0.00;0.00;;;;;;;24.40;79.86;97429.53;5036731;28;20128;-82
2022/08/14 15:15:13;;;;;;;0.00;0.00;;;;;;;24.44;80.50;97446.13;5040640;28;20565;-80
2022/08/14 15:17:41;;;;;;;0.00;0.00;;;;;;;24.50;79.96;97442.63;5023826;28;20508;-83
2022/08/14 15:20:12;;;;;;;0.00;0.00;;;;;;;24.50;77.89;97443.47;5030399;28;20068;-82
2022/08/14 15:22:40;;;;;;;0.00;0.00;;;;;;;24.56;76.92;97447.22;5018378;28;20054;-83
2022/08/14 15:25:09;;;;;;;0.00;0.00;;;;;;;24.64;77.17;97441.66;5041203;28;20045;-81
2022/08/14 15:27:37;;;;;;;0.00;0.00;;;;;;;24.74;77.07;97451.03;5017741;28;20088;-82
2022/08/14 15:30:07;;;;;;;0.00;0.00;;;;;;;24.77;76.51;97433.66;5015921;28;20115;-83
2022/08/14 15:32:36;;;;;;;0.00;0.00;;;;;;;24.74;77.13;97434.03;5031973;28;20469;-82
2022/08/14 15:35:04;;;;;;;0.00;0.00;;;;;;;24.65;77.30;97437.94;5016857;28;20671;-83
2022/08/14 15:37:35;;;;;;;0.00;0.00;;;;;;;24.64;77.51;97428.19;5015407;28;20057;-83
2022/08/14 15:40:04;;;;;;;0.00;0.00;;;;;;;24.64;77.65;97425.50;5042633;28;20046;-82
2022/08/14 15:42:36;;;;;;;0.00;0.00;;;;;;;24.68;77.79;97424.91;5027244;28;20119;-81
2022/08/14 15:45:09;;;;;;;0.00;0.00;;;;;;;24.72;77.92;97418.09;5020928;28;20398;-82
2022/08/14 15:47:56;;;;;;;0.00;0.00;;;;;;;24.78;78.33;97422.69;5027196;28;20517;-83
2022/08/14 15:50:25;;;;;;;0.00;0.00;;;;;;;24.89;77.52;97422.09;5033402;28;20091;-82
2022/08/14 15:52:52;;;;;;;0.00;0.00;;;;;;;24.89;75.37;97421.25;5023995;28;20124;-81
2022/08/14 15:55:21;;;;;;;0.00;0.00;;;;;;;24.86;74.90;97418.97;5021977;28;20049;-83
2022/08/14 15:57:49;;;;;;;0.00;0.00;;;;;;;24.83;75.22;97430.13;5027267;28;20073;-82
2022/08/14 16:03:04;;;;;;;0.00;0.00;;;;;;;24.56;75.71;97439.13;5022815;28;20113;-82
2022/08/14 16:05:32;;;;;;;0.00;0.00;;;;;;;24.50;76.48;97435.38;5027493;28;20119;-81
2022/08/14 16:07:59;;;;;;;0.00;0.00;;;;;;;24.51;77.00;97445.09;5026620;28;20123;-82
2022/08/14 16:10:27;;;;;;;0.00;0.00;;;;;;;24.56;77.50;97431.06;5035944;28;20069;-82
2022/08/14 16:12:54;;;;;;;0.00;0.00;;;;;;;24.58;77.15;97431.72;5039864;28;20489;-83
2022/08/14 16:15:22;;;;;;;0.00;0.00;;;;;;;24.64;76.50;97433.59;5051852;28;20115;-82
2022/08/14 16:17:50;;;;;;;0.00;0.00;;;;;;;24.64;75.76;97425.50;5039040;28;20046;-82
2022/08/14 16:20:19;;;;;;;0.00;0.00;;;;;;;24.61;74.97;97425.91;5035464;28;20030;-83
2022/08/14 16:22:47;;;;;;;0.00;0.00;;;;;;;24.58;74.67;97427.16;5033574;28;20049;-82
2022/08/14 16:25:14;;;;;;;0.00;0.00;;;;;;;24.58;74.62;97437.09;5033573;28;20052;-81
2022/08/14 16:27:42;;;;;;;0.00;0.00;;;;;;;24.59;74.37;97433.38;5020970;28;20080;-81
2022/08/14 16:30:13;;;;;;;0.00;0.00;;;;;;;24.56;73.86;97433.75;5027373;28;20038;-81
2022/08/14 16:32:41;;;;;;;0.00;0.00;;;;;;;24.53;74.55;97440.38;5019794;28;20049;-82
2022/08/14 16:35:12;;;;;;;0.00;0.00;;;;;;;24.48;74.73;97436.63;5026538;28;20047;-80
2022/08/14 16:37:42;;;;;;;0.00;0.00;;;;;;;24.42;74.76;97446.31;5022065;28;20052;-82
2022/08/14 16:40:11;;;;;;;0.00;0.00;;;;;;;24.39;75.69;97443.19;5030473;28;20063;-83
2022/08/14 16:42:41;;;;;;;0.00;0.00;;;;;;;24.32;76.11;97440.47;5026637;28;20530;-81
2022/08/14 16:45:11;;;;;;;0.00;0.00;;;;;;;24.28;76.51;97439.16;5036496;28;20137;-83
2022/08/14 16:47:39;;;;;;;0.00;0.00;;;;;;;24.20;76.53;97438.50;5027135;28;20041;-81
2022/08/14 16:50:10;;;;;;;0.00;0.00;;;;;;;24.13;76.43;97430.41;5033127;28;20153;-82
2022/08/14 16:52:38;;;;;;;0.00;0.00;;;;;;;24.15;76.75;97424.84;5035268;28;20065;-82
2022/08/14 16:55:09;;;;;;;0.00;0.00;;;;;;;24.11;77.00;97415.50;5053655;28;20057;-83
2022/08/14 16:57:48;;;;;;;0.00;0.00;;;;;;;24.11;77.34;97424.38;5030012;28;20079;-83
2022/08/14 17:00:27;;;;;;;0.00;0.00;;;;;;;24.05;77.60;97422.50;5049852;28;20052;-84
2022/08/14 17:03:00;;;;;;;0.00;0.00;;;;;;;24.01;77.84;97421.25;5032913;28;20044;-78
2022/08/14 17:05:28;;;;;;;0.00;0.00;;;;;;;23.95;77.90;97419.31;5027344;28;20072;-82
2022/08/14 17:08:15;;;;;;;0.00;0.00;;;;;;;23.88;78.32;97414.94;5020049;28;20038;-81
2022/08/14 17:11:02;;;;;;;0.00;0.00;;;;;;;23.80;78.80;97413.22;5025767;28;20124;-80
2022/08/14 17:13:50;;;;;;;0.00;0.00;;;;;;;23.69;79.84;97416.44;5011506;28;20050;-81
2022/08/14 17:16:19;;;;;;;0.00;0.00;;;;;;;23.61;80.86;97417.38;5014172;28;20046;-81
2022/08/14 17:18:48;;;;;;;0.00;0.00;;;;;;;23.50;81.58;97406.34;5012486;28;20052;-79
2022/08/14 17:21:17;;;;;;;0.00;0.00;;;;;;;23.41;82.65;97397.59;5013986;28;21063;-81
2022/08/14 17:23:45;;;;;;;0.00;0.00;;;;;;;23.75;81.91;97398.72;4996794;28;20086;-79
2022/08/14 17:26:31;;;;;;;0.00;0.00;;;;;;;24.16;80.22;97397.75;5009661;28;20068;-81
2022/08/14 17:29:07;;;;;;;0.00;0.00;;;;;;;23.64;83.20;97400.88;5012288;28;20038;-80
2022/08/14 17:31:34;;;;;;;0.00;0.00;;;;;;;22.65;88.83;97405.47;5012209;28;20046;-81
2022/08/14 17:34:02;;;;;;;0.00;0.00;;;;;;;22.07;92.82;97402.84;5012859;28;20045;-78
2022/08/14 17:36:31;;;;;;;0.00;0.00;;;;;;;21.77;95.08;97400.34;5011504;28;20049;-81
2022/08/14 17:39:03;;;;;;;0.00;0.00;;;;;;;21.61;96.60;97393.25;5012178;28;20052;-80
2022/08/14 17:41:34;;;;;;;0.00;0.00;;;;;;;21.55;96.93;97403.88;5010941;28;20042;-82
2022/08/14 17:44:19;;;;;;;0.00;0.00;;;;;;;21.37;97.81;97406.88;5012146;28;20050;-80
2022/08/14 17:46:49;;;;;;;0.00;0.00;;;;;;;21.21;98.84;97403.50;5011378;28;20045;-80
2022/08/14 17:49:22;;;;;;;0.00;0.00;;;;;;;21.04;99.92;97404.63;5012666;28;20080;-79
2022/08/14 17:52:00;;;;;;;;;;;;;;;20.87;100.00;97416.41;5029602;28;20510;-83
2022/08/14 17:54:30;;;;;;;0.00;0.00;;;;;;;20.60;100.00;97415.09;5032021;28;20088;-81
2022/08/14 17:57:04;;;;;;;0.00;0.00;;;;;;;20.40;100.00;97413.84;5034808;28;20053;-83
2022/08/14 17:59:36;;;;;;;0.00;0.00;;;;;;;20.24;100.00;97412.09;5018428;28;20058;-79
2022/08/14 18:02:05;;;;;;;0.00;0.00;;;;;;;20.14;100.00;97416.78;5029403;28;20041;-81
2022/08/14 18:04:35;;;;;;;0.00;0.00;;;;;;;20.07;100.00;97412.28;5014744;28;20045;-81
2022/08/14 18:07:06;;;;;;;0.00;0.00;;;;;;;20.04;100.00;97424.16;5030210;28;20037;-81
2022/08/14 18:09:36;;;;;;;0.00;0.00;;;;;;;19.95;100.00;97422.50;5044715;28;20402;-80
2022/08/14 18:12:07;;;;;;;0.00;0.00;;;;;;;19.89;100.00;97428.53;5039784;28;20078;-83
2022/08/14 18:14:36;;;;;;;0.00;0.00;;;;;;;19.84;100.00;97430.03;5035143;28;20132;-82
2022/08/14 18:17:05;;;;;;;0.00;0.00;;;;;;;19.86;100.00;97430.72;5037039;28;20041;-83
2022/08/14 18:19:38;;;;;;;0.00;0.00;;;;;;;19.88;100.00;97436.72;5036177;28;20487;-82
2022/08/14 18:22:08;;;;;;;0.00;0.00;;;;;;;19.87;100.00;97446.56;5026962;28;20124;-80
2022/08/14 18:24:37;;;;;;;0.00;0.00;;;;;;;19.86;100.00;97457.41;5028272;28;20077;-81
2022/08/14 18:27:10;;;;;;;0.00;0.00;;;;;;;19.80;100.00;97460.75;5032260;28;20033;-83
2022/08/14 18:29:45;;;;;;;0.00;0.00;;;;;;;19.68;100.00;97454.91;5024136;28;20499;-82
2022/08/14 18:32:39;;;;;;;0.00;0.00;;;;;;;19.49;100.00;97467.81;5033839;28;20042;-82
2022/08/14 18:35:08;;;;;;;;;;;;;;;19.39;100.00;97467.94;5027857;28;20042;-82
2022/08/14 18:37:35;;;;;;;0.00;0.00;;;;;;;19.29;100.00;97467.25;5043300;28;19961;-82
2022/08/14 18:40:31;;;;;;;0.00;0.00;;;;;;;19.19;100.00;97482.59;5020014;28;20069;-82
2022/08/14 18:43:00;;;;;;;0.00;0.00;;;;;;;19.14;100.00;97484.06;5025684;28;20128;-81
2022/08/14 18:45:30;;;;;;;0.00;0.00;;;;;;;19.10;100.00;97483.59;5026339;28;20095;-81
2022/08/14 18:48:10;;;;;;;0.00;0.00;;;;;;;18.99;100.00;97480.38;5024559;28;20061;-82
2022/08/14 18:50:59;;;;;;;0.00;0.00;;;;;;;18.84;100.00;97472.19;5027062;28;20050;-82
2022/08/14 18:53:27;;;;;;;0.00;0.00;;;;;;;18.78;100.00;97467.50;5022207;28;20458;-82
2022/08/14 18:55:57;;;;;;;0.00;0.00;;;;;;;18.76;100.00;97463.34;5021576;28;20033;-83
2022/08/14 18:58:29;;;;;;;0.00;0.00;;;;;;;18.66;100.00;97468.81;5018698;28;20499;-81
2022/08/14 19:00:58;;;;;;;0.00;0.00;;;;;;;18.57;100.00;97464.41;5027259;28;20133;-82
2022/08/14 19:03:54;;;;;;;0.00;0.00;;;;;;;18.51;100.00;97466.91;5018913;28;20376;-81
2022/08/14 19:06:47;;;;;;;0.00;0.00;;;;;;;18.42;100.00;97460.69;5017909;28;20050;-83
2022/08/14 19:09:52;;;;;;;0.00;0.00;;;;;;;18.44;100.00;97465.88;5018992;28;20041;-82
2022/08/14 19:12:59;;;;;;;0.00;0.00;;;;;;;18.45;100.00;97467.53;5024023;28;20422;-80
2022/08/14 19:15:30;;;;;;;0.00;0.00;;;;;;;18.31;100.00;97473.47;5027833;28;20481;-83
2022/08/14 19:17:58;;;;;;;0.00;0.00;;;;;;;18.23;100.00;97460.09;5019727;28;20502;-82
2022/08/14 19:20:46;;;;;;;0.00;0.00;;;;;;;18.17;100.00;97455.44;5019150;28;21078;-80
2022/08/14 19:23:17;;;;;;;0.00;0.00;;;;;;;18.14;100.00;97451.28;5020223;28;20046;-83
2022/08/14 19:25:53;;;;;;;0.00;0.00;;;;;;;18.10;100.00;97451.75;5024839;28;20684;-84
2022/08/14 19:28:22;;;;;;;0.00;0.00;;;;;;;18.11;100.00;97448.91;5023427;28;20046;-84
2022/08/14 19:31:12;;;;;;;0.00;0.00;;;;;;;18.09;100.00;97445.56;5023149;28;20477;-83
2022/08/14 19:33:51;;;;;;;0.00;0.00;;;;;;;18.12;100.00;97447.91;5020631;28;20600;-81
2022/08/14 19:36:20;;;;;;;0.00;0.00;;;;;;;18.11;100.00;97445.41;5023640;28;20040;-81
2022/08/14 19:38:52;;;;;;;0.00;0.00;;;;;;;18.12;100.00;97442.59;5020358;28;20046;-83
2022/08/14 19:41:23;;;;;;;0.00;0.00;;;;;;;18.15;100.00;97439.63;5022078;28;20465;-83
2022/08/14 19:43:52;;;;;;;0.00;0.00;;;;;;;18.07;100.00;97436.94;5024965;28;20042;-83
2022/08/14 19:46:31;;;;;;;0.00;0.00;;;;;;;17.95;100.00;97435.50;5017645;28;20050;-83
2022/08/14 19:49:00;;;;;;;0.00;0.00;;;;;;;17.92;100.00;97438.50;5017744;28;20053;-83
2022/08/14 19:51:28;;;;;;;0.00;0.00;;;;;;;17.94;100.00;97441.84;5020493;28;20041;-85
2022/08/14 19:54:01;;;;;;;0.00;0.00;;;;;;;18.01;100.00;97431.38;5030542;28;20053;-82
2022/08/14 19:56:35;;;;;;;0.00;0.00;;;;;;;18.13;100.00;97432.78;5031191;28;20115;-82
2022/08/14 19:59:03;;;;;;;0.00;0.00;;;;;;;18.22;100.00;97439.81;5017524;28;20046;-83
2022/08/14 20:01:34;;;;;;;0.00;0.00;;;;;;;18.31;100.00;97450.34;5015358;28;20100;-83
2022/08/14 20:04:04;;;;;;;0.00;0.00;;;;;;;18.42;100.00;97447.38;5039730;28;20077;-83
2022/08/14 20:06:39;;;;;;;0.00;0.00;;;;;;;18.44;100.00;97447.22;5020675;28;20153;-81
2022/08/14 20:09:08;;;;;;;0.00;0.00;;;;;;;18.35;100.00;97438.34;5017962;28;20092;-82
2022/08/14 20:11:38;;;;;;;0.00;0.00;;;;;;;18.32;100.00;97433.34;5018425;28;20045;-84
2022/08/14 20:14:10;;;;;;;0.00;0.00;;;;;;;18.32;100.00;97433.34;5019482;28;20513;-83
2022/08/14 20:16:41;;;;;;;0.00;0.00;;;;;;;18.38;100.00;97431.88;5024688;28;20082;-82
2022/08/14 20:19:14;;;;;;;0.00;0.00;;;;;;;18.31;100.00;97436.19;5023693;28;20071;-83
2022/08/14 20:21:45;;;;;;;0.00;0.00;;;;;;;18.21;100.00;97438.16;5022141;28;20069;-82
2022/08/14 20:24:26;;;;;;;0.00;0.00;;;;;;;18.13;100.00;97438.13;5026657;28;20454;-84
2022/08/14 20:27:21;;;;;;;0.00;0.00;;;;;;;18.12;100.00;97431.94;5017691;28;20050;-83
2022/08/14 20:30:06;;;;;;;0.00;0.00;;;;;;;18.15;100.00;97434.28;5008563;28;20518;-82
2022/08/14 20:32:36;;;;;;;0.00;0.00;;;;;;;18.15;100.00;97422.81;5017629;28;20038;-82
2022/08/14 20:35:06;;;;;;;0.00;0.00;;;;;;;18.12;100.00;97420.44;5019615;28;20042;-82
2022/08/14 20:37:35;;;;;;;0.00;0.00;;;;;;;18.14;100.00;97421.13;5017295;28;20042;-83
2022/08/14 20:40:17;;;;;;;0.00;0.00;;;;;;;18.12;100.00;97417.78;5016348;28;20060;-82
2022/08/14 20:45:46;;;;;;;0.00;0.00;;;;;;;17.85;100.00;97413.53;5024563;28;20576;-82
2022/08/14 20:48:18;;;;;;;0.00;0.00;;;;;;;17.72;100.00;97402.44;5021589;28;20042;-83
2022/08/14 20:50:46;;;;;;;0.00;0.00;;;;;;;17.68;100.00;97411.72;5017502;28;20042;-81
2022/08/14 20:53:34;;;;;;;0.00;0.00;;;;;;;17.72;100.00;97413.06;5029678;28;20046;-82
2022/08/14 20:56:19;;;;;;;0.00;0.00;;;;;;;17.65;100.00;97406.69;5024532;28;20060;-82
2022/08/14 20:58:47;;;;;;;0.00;0.00;;;;;;;17.61;100.00;97406.19;5019040;28;20384;-83
2022/08/14 21:04:27;;;;;;;0.00;0.00;;;;;;;17.67;100.00;97428.69;5098383;27;20412;-82
2022/08/14 21:06:58;;;;;;;0.00;0.00;;;;;;;17.62;100.00;97430.94;5095106;28;20134;-81
2022/08/14 21:09:26;;;;;;;0.00;0.00;;;;;;;17.53;100.00;97422.13;5093746;28;20041;-82
2022/08/14 21:11:55;;;;;;;0.00;0.00;;;;;;;17.49;100.00;97420.75;5090911;28;20036;-82
2022/08/14 21:14:27;;;;;;;0.00;0.00;;;;;;;17.49;100.00;97435.88;5093002;28;20373;-82
2022/08/14 21:16:56;;;;;;;0.00;0.00;;;;;;;17.50;100.00;97437.53;5092922;28;20048;-81
2022/08/14 21:19:26;;;;;;;0.00;0.00;;;;;;;17.49;100.00;97430.56;5093323;28;20040;-82
2022/08/14 21:21:55;;;;;;;0.00;0.00;;;;;;;17.51;100.00;97431.22;5093417;28;20512;-81
2022/08/14 21:24:23;;;;;;;0.00;0.00;;;;;;;17.44;100.00;97425.69;5093122;28;20032;-82
2022/08/14 21:26:54;;;;;;;0.00;0.00;;;;;;;17.38;100.00;97413.03;5094048;28;20033;-81
2022/08/14 21:29:24;;;;;;;0.00;0.00;;;;;;;17.37;100.00;97407.88;5093736;28;20040;-81
2022/08/14 21:31:52;;;;;;;0.00;0.00;;;;;;;17.42;100.00;97405.56;5094388;28;20048;-84
2022/08/14 21:34:21;;;;;;;0.00;0.00;;;;;;;17.42;100.00;97402.91;5080502;28;20039;-83
2022/08/14 21:36:53;;;;;;;0.00;0.00;;;;;;;17.38;100.00;97398.88;5107427;28;20058;-81
2022/08/14 21:39:22;;;;;;;0.00;0.00;;;;;;;17.38;100.00;97396.22;5102031;28;20050;-82
2022/08/14 21:41:50;;;;;;;0.00;0.00;;;;;;;17.35;100.00;97392.06;5098806;28;20384;-80
2022/08/14 21:44:19;;;;;;;0.00;0.00;;;;;;;17.26;100.00;97390.31;5099846;28;20040;-82
2022/08/14 21:46:48;;;;;;;0.00;0.00;;;;;;;17.21;100.00;97391.78;5096184;28;20040;-82
2022/08/14 21:49:19;;;;;;;0.00;0.00;;;;;;;17.20;100.00;97404.25;5102571;28;20123;-80
2022/08/14 21:51:53;;;;;;;0.00;0.00;;;;;;;17.32;100.00;97410.97;5072348;28;20408;-82
2022/08/14 21:54:23;;;;;;;0.00;0.00;;;;;;;17.47;100.00;97414.75;5099358;28;20048;-82
2022/08/14 21:56:51;;;;;;;0.00;0.00;;;;;;;17.48;100.00;97415.59;5106987;28;20040;-81
2022/08/14 21:59:22;;;;;;;0.00;0.00;;;;;;;17.44;100.00;97417.72;5099870;28;20062;-81
2022/08/14 22:01:50;;;;;;;0.00;0.00;;;;;;;17.35;100.00;97415.16;5098748;28;20044;-82
2022/08/14 22:04:19;;;;;;;0.00;0.00;;;;;;;17.28;100.00;97419.41;5101759;28;20044;-80
2022/08/14 22:06:48;;;;;;;0.00;0.00;;;;;;;17.26;100.00;97413.44;5100689;28;20044;-80
2022/08/14 22:09:20;;;;;;;0.00;0.00;;;;;;;17.21;100.00;97411.22;5100502;28;20036;-82
2022/08/14 22:11:48;;;;;;;0.00;0.00;;;;;;;17.13;100.00;97420.97;5103356;28;20036;-83
2022/08/14 22:14:16;;;;;;;0.00;0.00;;;;;;;17.18;100.00;97418.69;5092606;28;20089;-84
2022/08/14 22:16:45;;;;;;;0.00;0.00;;;;;;;17.27;100.00;97417.75;5089121;28;20049;-82
2022/08/14 22:19:17;;;;;;;0.00;0.00;;;;;;;17.31;100.00;97419.13;5083621;28;20040;-82
2022/08/14 22:21:45;;;;;;;0.00;0.00;;;;;;;17.21;100.00;97403.25;5084564;28;20064;-81
2022/08/14 22:24:14;;;;;;;0.00;0.00;;;;;;;17.13;100.00;97415.63;5090298;28;20046;-82
2022/08/14 22:26:44;;;;;;;0.00;0.00;;;;;;;17.14;100.00;97417.31;5088889;28;20032;-81
2022/08/14 22:29:11;;;;;;;0.00;0.00;;;;;;;17.17;100.00;97423.16;5079027;28;20072;-82
2022/08/14 22:31:40;;;;;;;0.00;0.00;;;;;;;17.20;100.00;97416.69;5088092;28;20042;-82
2022/08/14 22:34:09;;;;;;;0.00;0.00;;;;;;;17.18;100.00;97410.72;5080683;28;20047;-81
2022/08/14 22:36:49;;;;;;;0.00;0.00;;;;;;;17.16;100.00;97410.03;5087590;28;20036;-80
2022/08/14 22:39:18;;;;;;;0.00;0.00;;;;;;;17.09;100.00;97403.66;5082689;28;20062;-82
2022/08/14 22:41:49;;;;;;;0.00;0.00;;;;;;;17.02;100.00;97406.09;5089343;28;20102;-82
2022/08/14 22:44:19;;;;;;;0.00;0.00;;;;;;;16.98;100.00;97409.19;5086853;28;20044;-82
2022/08/14 22:46:48;;;;;;;0.00;0.00;;;;;;;16.92;100.00;97399.13;5082997;28;20039;-81
2022/08/14 22:49:17;;;;;;;0.00;0.00;;;;;;;16.91;100.00;97410.75;5078191;28;20045;-80
2022/08/14 22:51:45;;;;;;;0.00;0.00;;;;;;;16.92;100.00;97396.47;5079243;28;20036;-80
2022/08/14 22:54:12;;;;;;;0.00;0.00;;;;;;;16.95;100.00;97397.06;5079423;28;20038;-82
2022/08/14 22:56:40;;;;;;;0.00;0.00;;;;;;;16.94;100.00;97398.06;5080501;28;20436;-80
2022/08/14 22:59:10;;;;;;;0.00;0.00;;;;;;;16.94;100.00;97392.75;5086548;28;20032;-81
2022/08/14 23:01:40;;;;;;;0.00;0.00;;;;;;;16.92;100.00;97393.81;5082820;28;20070;-79
2022/08/14 23:04:09;;;;;;;0.00;0.00;;;;;;;16.95;100.00;97404.19;5037550;28;20037;-81
2022/08/14 23:06:37;;;;;;;0.00;0.00;;;;;;;16.96;100.00;97403.22;5040057;28;20047;-81
2022/08/14 23:09:05;;;;;;;0.00;0.00;;;;;;;16.86;100.00;97411.22;5044343;28;20095;-81
2022/08/14 23:11:36;;;;;;;0.00;0.00;;;;;;;16.73;100.00;97407.28;5043075;28;20037;-81
2022/08/14 23:14:05;;;;;;;0.00;0.00;;;;;;;16.70;100.00;97403.09;5045991;28;20048;-81
2022/08/14 23:16:35;;;;;;;0.00;0.00;;;;;;;16.66;100.00;97408.84;5048798;28;20147;-81
2022/08/14 23:19:04;;;;;;;0.00;0.00;;;;;;;16.54;100.00;97413.56;5047717;28;20083;-81
2022/08/14 23:21:32;;;;;;;0.00;0.00;;;;;;;16.41;100.00;97406.97;5048584;28;20086;-81
2022/08/14 23:24:00;;;;;;;0.00;0.00;;;;;;;16.33;100.00;97407.69;5048477;28;20517;-82
2022/08/14 23:26:30;;;;;;;0.00;0.00;;;;;;;16.36;100.00;97411.88;5044821;28;20397;-81
2022/08/14 23:28:57;;;;;;;0.00;0.00;;;;;;;16.33;100.00;97398.88;5037594;28;20136;-80
2022/08/14 23:31:25;;;;;;;0.00;0.00;;;;;;;16.23;100.00;97406.09;5039372;28;20033;-81
2022/08/14 23:33:54;;;;;;;0.00;0.00;;;;;;;16.17;100.00;97404.00;5041685;28;20490;-81
2022/08/14 23:36:24;;;;;;;0.00;0.00;;;;;;;16.21;100.00;97405.38;5038095;28;20107;-81
2022/08/14 23:38:52;;;;;;;0.00;0.00;;;;;;;16.23;100.00;97400.78;5041949;28;20132;-81
2022/08/14 23:41:21;;;;;;;0.00;0.00;;;;;;;16.28;100.00;97393.19;5040818;28;20132;-81
2022/08/14 23:43:53;;;;;;;0.00;0.00;;;;;;;16.31;100.00;97395.56;5041569;28;20045;-80
2022/08/14 23:46:22;;;;;;;0.00;0.00;;;;;;;16.39;100.00;97395.63;5040949;28;20038;-79
2022/08/14 23:48:51;;;;;;;0.00;0.00;;;;;;;16.43;100.00;97391.69;5039084;28;20134;-81
2022/08/14 23:51:20;;;;;;;0.00;0.00;;;;;;;16.45;100.00;97384.44;5040657;28;20041;-83
2022/08/14 23:53:50;;;;;;;0.00;0.00;;;;;;;16.42;100.00;97390.03;5038258;28;20157;-80
2022/08/14 23:56:20;;;;;;;0.00;0.00;;;;;;;16.39;100.00;97387.69;5039577;28;20041;-81
2022/08/14 23:58:48;;;;;;;0.00;0.00;;;;;;;16.28;100.00;97385.22;5043542;28;20044;-81
